createdAt,value
2023-05-21T00:01:50.164Z,12.36
2023-05-21T00:04:18.498Z,12.40
2023-05-21T00:06:46.770Z,12.43
2023-05-21T00:09:14.677Z,12.45
2023-05-21T00:11:42.908Z,12.43
2023-05-21T00:14:10.876Z,12.48
2023-05-21T00:16:40.035Z,12.53
2023-05-21T00:19:08.421Z,12.55
2023-05-21T00:21:36.546Z,12.63
2023-05-21T00:24:04.933Z,12.60
2023-05-21T00:26:32.995Z,12.45
2023-05-21T00:29:01.681Z,12.30
2023-05-21T00:31:30.497Z,12.33
2023-05-21T00:33:58.646Z,12.35
2023-05-21T00:36:26.824Z,12.36
2023-05-21T00:38:55.101Z,12.38
2023-05-21T00:41:24.299Z,12.42
2023-05-21T00:43:53.181Z,12.46
2023-05-21T00:46:21.781Z,12.49
2023-05-21T00:48:51.156Z,12.54
2023-05-21T00:51:21.938Z,12.54
2023-05-21T00:53:52.725Z,12.54
2023-05-21T00:56:23.004Z,12.58
2023-05-21T00:58:52.248Z,12.62
2023-05-21T01:01:20.586Z,12.62
2023-05-21T01:03:48.847Z,12.60
2023-05-21T01:06:17.269Z,12.57
2023-05-21T01:08:45.576Z,12.51
2023-05-21T01:11:15.242Z,12.52
2023-05-21T01:13:44.742Z,12.46
2023-05-21T01:16:14.055Z,12.38
2023-05-21T01:18:45.481Z,12.27
2023-05-21T01:21:17.605Z,12.19
2023-05-21T01:23:46.075Z,12.14
2023-05-21T01:26:14.062Z,12.18
2023-05-21T01:28:42.367Z,12.23
2023-05-21T01:31:51.406Z,12.20
2023-05-21T01:34:24.112Z,12.07
2023-05-21T01:37:14.107Z,11.95
2023-05-21T01:39:46.997Z,11.87
2023-05-21T01:42:16.916Z,11.71
2023-05-21T01:44:47.399Z,11.57
2023-05-21T01:47:17.241Z,11.48
2023-05-21T01:49:46.417Z,11.39
2023-05-21T01:52:14.923Z,11.33
2023-05-21T01:54:43.270Z,11.28
2023-05-21T01:57:12.154Z,11.18
2023-05-21T01:59:40.327Z,11.09
2023-05-21T02:02:09.188Z,10.95
2023-05-21T02:04:37.361Z,10.85
2023-05-21T02:07:05.363Z,10.84
2023-05-21T02:09:33.855Z,10.84
2023-05-21T02:12:03.348Z,10.81
2023-05-21T02:14:33.844Z,10.81
2023-05-21T02:17:02.154Z,10.78
2023-05-21T02:19:30.422Z,10.75
2023-05-21T02:21:58.846Z,10.71
2023-05-21T02:24:26.938Z,10.72
2023-05-21T02:26:55.048Z,10.72
2023-05-21T02:29:23.074Z,10.69
2023-05-21T02:31:51.432Z,10.66
2023-05-21T02:34:20.894Z,10.60
2023-05-21T02:36:52.554Z,10.51
2023-05-21T02:39:21.208Z,10.54
2023-05-21T02:41:49.314Z,10.60
2023-05-21T02:44:19.254Z,10.65
2023-05-21T02:46:47.403Z,10.68
2023-05-21T02:49:17.224Z,10.65
2023-05-21T02:51:46.112Z,10.62
2023-05-21T02:54:15.157Z,10.59
2023-05-21T02:56:43.265Z,10.55
2023-05-21T02:59:11.385Z,10.55
2023-05-21T03:01:41.700Z,10.58
2023-05-21T03:04:09.832Z,10.62
2023-05-21T03:06:37.938Z,10.66
2023-05-21T03:09:06.347Z,10.63
2023-05-21T03:11:34.547Z,10.66
2023-05-21T03:14:02.883Z,10.71
2023-05-21T03:16:34.757Z,10.77
2023-05-21T03:19:02.893Z,10.82
2023-05-21T03:21:32.410Z,10.89
2023-05-21T03:24:00.741Z,11.04
2023-05-21T03:26:29.645Z,11.21
2023-05-21T03:28:58.721Z,11.20
2023-05-21T03:31:27.527Z,11.11
2023-05-21T03:34:09.098Z,11.09
2023-05-21T03:36:37.387Z,11.15
2023-05-21T03:39:05.522Z,11.18
2023-05-21T03:41:34.954Z,11.20
2023-05-21T03:44:08.457Z,11.26
2023-05-21T03:46:48.790Z,11.38
2023-05-21T03:49:27.033Z,11.52
2023-05-21T03:51:56.729Z,11.73
2023-05-21T03:54:25.209Z,11.88
2023-05-21T03:56:55.932Z,11.94
2023-05-21T03:59:24.727Z,11.99
2023-05-21T04:01:52.696Z,12.03
2023-05-21T04:04:20.880Z,12.06
2023-05-21T04:06:51.252Z,12.14
2023-05-21T04:09:19.458Z,12.28
2023-05-21T04:11:48.007Z,12.42
2023-05-21T04:14:16.329Z,12.52
2023-05-21T04:16:45.619Z,12.63
2023-05-21T04:19:13.919Z,12.79
2023-05-21T04:21:45.306Z,12.95
2023-05-21T04:24:14.336Z,13.17
2023-05-21T04:26:52.520Z,13.46
2023-05-21T04:29:21.515Z,13.72
2023-05-21T04:31:50.997Z,13.98
2023-05-21T04:34:19.330Z,14.19
2023-05-21T04:36:48.525Z,14.40
2023-05-21T04:39:17.275Z,14.62
2023-05-21T04:41:45.395Z,14.87
2023-05-21T04:44:15.225Z,15.28
2023-05-21T04:46:46.254Z,15.52
2023-05-21T04:49:15.633Z,15.67
2023-05-21T04:51:44.833Z,15.83
2023-05-21T04:54:13.131Z,15.95
2023-05-21T04:56:41.262Z,16.06
2023-05-21T04:59:09.281Z,16.20
2023-05-21T05:01:38.735Z,16.26
2023-05-21T05:04:07.075Z,16.40
2023-05-21T05:06:35.218Z,16.68
2023-05-21T05:09:04.806Z,16.87
2023-05-21T05:11:33.017Z,16.96
2023-05-21T05:14:01.356Z,17.01
2023-05-21T05:16:29.740Z,17.09
2023-05-21T05:18:58.034Z,17.26
2023-05-21T05:21:27.411Z,17.52
2023-05-21T05:23:55.681Z,17.83
2023-05-21T05:26:27.238Z,17.97
2023-05-21T05:28:55.824Z,18.17
2023-05-21T05:31:24.159Z,18.36
2023-05-21T05:33:54.115Z,18.53
2023-05-21T05:36:23.279Z,18.75
2023-05-21T05:38:51.584Z,19.18
2023-05-21T05:41:19.548Z,19.45
2023-05-21T05:43:48.750Z,19.62
2023-05-21T05:46:17.236Z,19.81
2023-05-21T05:48:46.434Z,19.98
2023-05-21T05:51:15.538Z,20.17
2023-05-21T05:53:43.691Z,20.41
2023-05-21T05:56:12.549Z,20.68
2023-05-21T05:58:40.860Z,20.86
2023-05-21T06:01:12.081Z,21.05
2023-05-21T06:03:40.867Z,21.22
2023-05-21T06:06:13.964Z,21.45
2023-05-21T06:08:42.568Z,21.65
2023-05-21T06:11:11.580Z,21.87
2023-05-21T06:13:39.728Z,22.03
2023-05-21T06:16:10.211Z,22.28
2023-05-21T06:18:39.175Z,22.52
2023-05-21T06:21:07.449Z,22.64
2023-05-21T06:23:38.051Z,22.76
2023-05-21T06:26:06.444Z,22.84
2023-05-21T06:28:34.460Z,22.92
2023-05-21T06:31:02.675Z,23.04
2023-05-21T06:33:33.447Z,23.16
2023-05-21T06:36:02.202Z,23.23
2023-05-21T06:38:30.982Z,23.36
2023-05-21T06:41:00.092Z,23.45
2023-05-21T06:43:45.452Z,23.51
2023-05-21T06:46:43.313Z,23.73
2023-05-21T06:49:14.486Z,23.87
2023-05-21T06:51:42.552Z,24.00
2023-05-21T06:54:12.050Z,24.14
2023-05-21T06:56:40.925Z,24.30
2023-05-21T06:59:09.534Z,24.54
2023-05-21T07:01:42.581Z,24.68
2023-05-21T07:04:11.194Z,24.81
2023-05-21T07:06:39.967Z,24.87
2023-05-21T07:09:09.074Z,24.94
2023-05-21T07:11:37.236Z,24.91
2023-05-21T07:14:05.861Z,24.94
2023-05-21T07:16:34.967Z,25.02
2023-05-21T07:19:03.951Z,24.98
2023-05-21T07:21:32.380Z,25.00
2023-05-21T07:24:00.688Z,24.90
2023-05-21T07:26:28.933Z,24.77
2023-05-21T07:28:57.008Z,24.79
2023-05-21T07:31:25.786Z,24.83
2023-05-21T07:33:54.268Z,24.86
2023-05-21T07:36:26.043Z,25.00
2023-05-21T07:38:54.203Z,25.16
2023-05-21T07:41:22.906Z,25.33
2023-05-21T07:43:51.176Z,25.63
2023-05-21T07:46:19.284Z,25.99
2023-05-21T07:48:48.560Z,26.27
2023-05-21T07:51:16.710Z,26.48
2023-05-21T07:53:45.227Z,26.16
2023-05-21T07:56:13.996Z,26.00
2023-05-21T07:58:44.190Z,26.00
2023-05-21T08:01:12.474Z,26.12
2023-05-21T08:03:40.785Z,26.07
2023-05-21T08:06:09.233Z,26.16
2023-05-21T08:08:37.296Z,26.16
2023-05-21T08:11:05.670Z,26.07
2023-05-21T08:13:34.669Z,25.99
2023-05-21T08:16:05.016Z,25.95
2023-05-21T08:18:33.816Z,26.00
2023-05-21T08:21:02.002Z,25.93
2023-05-21T08:23:31.559Z,25.66
2023-05-21T08:26:00.301Z,25.42
2023-05-21T08:28:30.362Z,25.33
2023-05-21T08:30:58.416Z,25.79
2023-05-21T08:33:27.465Z,25.91
2023-05-21T08:35:56.114Z,25.86
2023-05-21T08:38:37.259Z,25.94
2023-05-21T08:41:18.577Z,26.08
2023-05-21T08:43:50.270Z,26.36
2023-05-21T08:46:23.808Z,26.52
2023-05-21T08:48:55.209Z,26.67
2023-05-21T08:51:23.496Z,27.06
2023-05-21T08:53:53.674Z,27.22
2023-05-21T08:56:22.908Z,27.42
2023-05-21T08:58:54.657Z,27.44
2023-05-21T09:01:26.850Z,27.44
2023-05-21T09:04:21.918Z,27.86
2023-05-21T09:06:58.035Z,28.20
2023-05-21T09:09:57.509Z,28.20
2023-05-21T09:12:26.469Z,28.10
2023-05-21T09:14:58.143Z,27.71
2023-05-21T09:17:31.244Z,27.45
2023-05-21T09:20:12.619Z,27.25
2023-05-21T09:22:52.423Z,27.32
2023-05-21T09:25:28.214Z,27.28
2023-05-21T09:27:57.294Z,27.10
2023-05-21T09:30:29.334Z,27.24
2023-05-21T09:33:00.404Z,27.49
2023-05-21T09:35:29.262Z,27.84
2023-05-21T09:37:57.767Z,27.89
2023-05-21T09:40:26.182Z,27.74
2023-05-21T09:42:55.411Z,27.74
2023-05-21T09:45:23.624Z,27.98
2023-05-21T09:47:54.679Z,28.14
2023-05-21T09:50:25.803Z,28.19
2023-05-21T09:52:55.727Z,28.18
2023-05-21T09:55:25.923Z,28.23
2023-05-21T09:57:53.932Z,28.27
2023-05-21T10:00:27.481Z,28.09
2023-05-21T10:02:57.507Z,27.92
2023-05-21T10:05:28.412Z,27.78
2023-05-21T10:08:03.150Z,27.63
2023-05-21T10:10:32.593Z,27.71
2023-05-21T10:13:11.425Z,27.92
2023-05-21T10:15:44.226Z,28.26
2023-05-21T10:18:13.801Z,28.42
2023-05-21T10:20:42.778Z,28.66
2023-05-21T10:23:11.375Z,28.68
2023-05-21T10:25:41.318Z,28.44
2023-05-21T10:28:09.484Z,28.11
2023-05-21T10:30:38.708Z,27.70
2023-05-21T10:33:07.894Z,27.65
2023-05-21T10:35:38.791Z,27.86
2023-05-21T10:38:09.435Z,28.19
2023-05-21T10:40:38.103Z,28.40
2023-05-21T10:43:06.314Z,28.54
2023-05-21T10:45:50.719Z,28.86
2023-05-21T10:49:01.131Z,28.94
2023-05-21T10:51:55.365Z,28.73
2023-05-21T10:54:32.492Z,28.69
2023-05-21T10:57:07.088Z,28.53
2023-05-21T10:59:42.662Z,28.50
2023-05-21T11:02:14.734Z,28.24
2023-05-21T11:04:49.219Z,28.30
2023-05-21T11:07:24.813Z,28.59
2023-05-21T11:09:53.169Z,28.44
2023-05-21T11:12:23.540Z,28.40
2023-05-21T11:14:58.106Z,28.54
2023-05-21T11:17:44.847Z,28.78
2023-05-21T11:20:17.462Z,29.17
2023-05-21T11:22:46.948Z,29.26
2023-05-21T11:25:15.988Z,29.30
2023-05-21T11:27:44.237Z,29.32
2023-05-21T11:30:19.341Z,29.63
2023-05-21T11:33:14.086Z,30.00
2023-05-21T11:35:45.508Z,30.10
2023-05-21T11:38:13.514Z,29.82
2023-05-21T11:40:54.948Z,29.48
2023-05-21T11:43:23.221Z,29.21
2023-05-21T11:45:53.157Z,29.24
2023-05-21T11:48:27.274Z,29.17
2023-05-21T11:50:57.648Z,29.31
2023-05-21T11:53:25.910Z,29.50
2023-05-21T11:55:57.800Z,29.62
2023-05-21T11:58:26.739Z,29.57
2023-05-21T12:00:54.839Z,29.33
2023-05-21T12:03:27.301Z,29.13
2023-05-21T12:05:56.109Z,28.88
2023-05-21T12:08:27.693Z,28.38
2023-05-21T12:11:00.496Z,27.96
2023-05-21T12:13:28.914Z,27.78
2023-05-21T12:15:57.324Z,27.65
2023-05-21T12:18:26.019Z,27.61
2023-05-21T12:20:54.228Z,27.60
2023-05-21T12:23:25.894Z,27.38
2023-05-21T12:25:54.535Z,27.42
2023-05-21T12:28:24.845Z,27.49
2023-05-21T12:30:53.794Z,27.47
2023-05-21T12:33:25.042Z,27.45
2023-05-21T12:35:53.233Z,27.31
2023-05-21T12:38:21.335Z,27.22
2023-05-21T12:40:49.369Z,27.17
2023-05-21T12:43:17.402Z,27.12
2023-05-21T12:45:45.695Z,27.43
2023-05-21T12:48:13.953Z,27.66
2023-05-21T12:50:43.332Z,27.45
2023-05-21T12:53:12.450Z,27.36
2023-05-21T12:55:40.848Z,27.54
2023-05-21T12:58:13.453Z,27.45
2023-05-21T13:00:45.614Z,27.31
2023-05-21T13:03:14.674Z,27.37
2023-05-21T13:05:42.885Z,27.38
2023-05-21T13:08:11.492Z,27.36
2023-05-21T13:10:39.781Z,27.46
2023-05-21T13:13:08.359Z,27.53
2023-05-21T13:15:36.658Z,27.50
2023-05-21T13:18:04.667Z,27.49
2023-05-21T13:20:33.259Z,27.41
2023-05-21T13:23:03.442Z,27.31
2023-05-21T13:25:33.078Z,27.31
2023-05-21T13:28:05.653Z,27.38
2023-05-21T13:30:33.861Z,27.46
2023-05-21T13:33:02.958Z,27.42
2023-05-21T13:35:31.245Z,27.32
2023-05-21T13:37:59.305Z,27.21
2023-05-21T13:40:27.592Z,27.23
2023-05-21T13:42:55.845Z,27.11
2023-05-21T13:45:29.472Z,26.98
2023-05-21T13:47:58.527Z,26.96
2023-05-21T13:50:27.039Z,26.87
2023-05-21T13:52:55.305Z,26.86
2023-05-21T13:55:23.516Z,26.78
2023-05-21T13:57:51.858Z,26.64
2023-05-21T14:00:19.836Z,26.55
2023-05-21T14:02:48.444Z,26.61
2023-05-21T14:05:17.191Z,26.61
2023-05-21T14:07:47.641Z,26.59
2023-05-21T14:10:15.984Z,26.54
2023-05-21T14:12:46.233Z,26.46
2023-05-21T14:15:14.294Z,26.42
2023-05-21T14:17:42.588Z,26.43
2023-05-21T14:20:11.478Z,26.40
2023-05-21T14:22:39.611Z,26.35
2023-05-21T14:25:08.177Z,26.29
2023-05-21T14:27:37.961Z,26.32
2023-05-21T14:30:06.885Z,26.40
2023-05-21T14:32:34.914Z,26.53
2023-05-21T14:35:03.370Z,26.69
2023-05-21T14:37:31.432Z,26.72
2023-05-21T14:39:59.293Z,26.56
2023-05-21T14:42:27.358Z,26.51
2023-05-21T14:44:55.631Z,26.60
2023-05-21T14:47:24.044Z,26.59
2023-05-21T14:49:52.199Z,26.58
2023-05-21T14:52:20.492Z,26.60
2023-05-21T14:54:48.720Z,26.65
2023-05-21T14:57:16.817Z,26.55
2023-05-21T14:59:45.089Z,26.58
2023-05-21T15:02:13.352Z,26.67
2023-05-21T15:04:41.471Z,26.60
2023-05-21T15:07:09.718Z,26.49
2023-05-21T15:09:37.685Z,26.25
2023-05-21T15:12:05.752Z,26.04
2023-05-21T15:14:34.022Z,25.91
2023-05-21T15:17:02.144Z,25.58
2023-05-21T15:19:30.333Z,25.15
2023-05-21T15:21:58.692Z,24.55
2023-05-21T15:24:26.810Z,23.99
2023-05-21T15:26:54.682Z,23.58
2023-05-21T15:29:22.755Z,23.30
2023-05-21T15:31:50.844Z,23.07
2023-05-21T15:34:18.830Z,22.95
2023-05-21T15:36:47.095Z,22.90
2023-05-21T15:39:15.909Z,22.82
2023-05-21T15:41:44.440Z,22.74
2023-05-21T15:44:12.393Z,22.71
2023-05-21T15:46:40.767Z,22.67
2023-05-21T15:49:08.973Z,22.59
2023-05-21T15:51:37.252Z,22.47
2023-05-21T15:54:06.642Z,22.36
2023-05-21T15:56:34.707Z,22.29
2023-05-21T15:59:03.075Z,22.27
2023-05-21T16:01:31.587Z,22.22
2023-05-21T16:04:01.203Z,22.21
2023-05-21T16:06:30.052Z,22.19
2023-05-21T16:08:58.953Z,22.09
2023-05-21T16:11:27.842Z,21.94
2023-05-21T16:13:55.833Z,21.70
2023-05-21T16:16:24.798Z,21.56
2023-05-21T16:18:53.921Z,21.52
2023-05-21T16:21:21.986Z,21.45
2023-05-21T16:23:50.014Z,21.32
2023-05-21T16:26:18.304Z,21.23
2023-05-21T16:28:46.382Z,21.21
2023-05-21T16:31:14.652Z,21.24
2023-05-21T16:33:43.132Z,21.25
2023-05-21T16:36:11.129Z,21.26
2023-05-21T16:38:39.196Z,21.29
2023-05-21T16:41:07.351Z,21.35
2023-05-21T16:43:35.533Z,21.43
2023-05-21T16:46:03.708Z,21.51
2023-05-21T16:48:33.009Z,21.59
2023-05-21T16:51:01.368Z,21.65
2023-05-21T16:53:29.458Z,21.73
2023-05-21T16:55:57.614Z,21.81
2023-05-21T16:58:25.795Z,21.80
2023-05-21T17:00:54.158Z,21.67
2023-05-21T17:03:22.497Z,21.52
2023-05-21T17:05:51.044Z,21.39
2023-05-21T17:08:19.473Z,21.23
2023-05-21T17:10:47.876Z,21.09
2023-05-21T17:13:22.277Z,20.98
2023-05-21T17:15:51.677Z,20.83
2023-05-21T17:18:20.011Z,20.74
2023-05-21T17:20:48.262Z,20.72
2023-05-21T17:23:16.424Z,20.69
2023-05-21T17:25:44.805Z,20.65
2023-05-21T17:28:12.972Z,20.62
2023-05-21T17:30:41.286Z,20.57
2023-05-21T17:33:10.603Z,20.50
2023-05-21T17:35:39.266Z,20.40
2023-05-21T17:38:08.060Z,20.33
2023-05-21T17:40:36.420Z,20.28
2023-05-21T17:43:05.311Z,20.17
2023-05-21T17:45:33.556Z,20.01
2023-05-21T17:48:01.637Z,19.82
2023-05-21T17:50:30.139Z,19.71
2023-05-21T17:52:58.188Z,19.62
2023-05-21T17:55:26.362Z,19.57
2023-05-21T17:57:54.556Z,19.49
2023-05-21T18:00:22.796Z,19.42
2023-05-21T18:02:51.062Z,19.31
2023-05-21T18:05:19.325Z,19.24
2023-05-21T18:07:47.449Z,19.18
2023-05-21T18:10:16.226Z,19.05
2023-05-21T18:12:46.585Z,18.89
2023-05-21T18:15:15.677Z,18.74
2023-05-21T18:17:44.438Z,18.64
2023-05-21T18:20:13.536Z,18.54
2023-05-21T18:22:41.836Z,18.38
2023-05-21T18:25:10.811Z,18.18
2023-05-21T18:27:39.083Z,18.01
2023-05-21T18:30:08.694Z,17.91
2023-05-21T18:32:39.739Z,17.79
2023-05-21T18:35:10.973Z,17.69
2023-05-21T18:37:42.243Z,17.62
2023-05-21T18:40:12.061Z,17.57
2023-05-21T18:42:40.497Z,17.49
2023-05-21T18:45:10.428Z,17.41
2023-05-21T18:47:40.451Z,17.28
2023-05-21T18:50:14.356Z,17.19
2023-05-21T18:52:42.693Z,17.09
2023-05-21T18:55:11.045Z,17.02
2023-05-21T18:57:39.864Z,16.96
2023-05-21T19:00:09.931Z,16.92
2023-05-21T19:02:38.507Z,16.88
2023-05-21T19:05:10.028Z,16.83
2023-05-21T19:07:38.350Z,16.76
2023-05-21T19:10:07.898Z,16.71
2023-05-21T19:12:36.447Z,16.66
2023-05-21T19:15:04.693Z,16.62
2023-05-21T19:17:34.807Z,16.57
2023-05-21T19:20:05.315Z,16.54
2023-05-21T19:22:34.148Z,16.52
2023-05-21T19:25:02.441Z,16.49
2023-05-21T19:27:30.660Z,16.43
2023-05-21T19:29:58.857Z,16.32
2023-05-21T19:32:27.136Z,16.27
2023-05-21T19:34:57.663Z,16.26
2023-05-21T19:37:26.503Z,16.24
2023-05-21T19:39:54.559Z,16.19
2023-05-21T19:42:22.798Z,16.14
2023-05-21T19:44:50.981Z,16.17
2023-05-21T19:47:19.143Z,16.20
2023-05-21T19:49:47.335Z,16.22
2023-05-21T19:52:15.434Z,16.23
2023-05-21T19:54:44.685Z,16.23
2023-05-21T19:57:13.456Z,16.21
2023-05-21T19:59:41.644Z,16.18
2023-05-21T20:02:13.358Z,16.17
2023-05-21T20:04:41.445Z,16.18
2023-05-21T20:07:09.749Z,16.16
2023-05-21T20:09:37.883Z,16.15
2023-05-21T20:12:06.690Z,16.15
2023-05-21T20:14:35.097Z,16.14
2023-05-21T20:17:05.893Z,16.12
2023-05-21T20:19:34.899Z,16.11
2023-05-21T20:22:03.048Z,16.05
2023-05-21T20:24:31.311Z,16.01
2023-05-21T20:27:01.928Z,15.98
2023-05-21T20:29:30.204Z,15.89
2023-05-21T20:31:58.359Z,15.78
2023-05-21T20:34:27.644Z,15.71
2023-05-21T20:36:58.954Z,15.62
2023-05-21T20:39:30.077Z,15.51
2023-05-21T20:41:58.713Z,15.40
2023-05-21T20:44:27.683Z,15.28
2023-05-21T20:46:55.786Z,15.15
2023-05-21T20:49:24.916Z,15.07
2023-05-21T20:51:54.232Z,15.00
2023-05-21T20:54:22.395Z,14.90
2023-05-21T20:56:50.938Z,14.79
2023-05-21T20:59:19.042Z,14.73
2023-05-21T21:01:47.100Z,14.68
2023-05-21T21:04:17.858Z,14.64
2023-05-21T21:06:47.360Z,14.58
2023-05-21T21:09:15.535Z,14.54
2023-05-21T21:11:43.907Z,14.47
2023-05-21T21:14:13.782Z,14.34
2023-05-21T21:16:41.851Z,14.22
2023-05-21T21:19:09.999Z,14.14
2023-05-21T21:21:38.294Z,14.10
2023-05-21T21:24:06.825Z,14.05
2023-05-21T21:26:35.003Z,14.02
2023-05-21T21:29:03.138Z,13.99
2023-05-21T21:31:31.216Z,13.99
2023-05-21T21:33:59.467Z,13.94
2023-05-21T21:36:29.068Z,13.93
2023-05-21T21:38:57.670Z,13.92
2023-05-21T21:41:26.012Z,13.90
2023-05-21T21:43:54.238Z,13.87
2023-05-21T21:46:22.651Z,13.82
2023-05-21T21:48:50.701Z,13.77
2023-05-21T21:51:20.679Z,13.75
2023-05-21T21:53:49.815Z,13.65
2023-05-21T21:56:17.858Z,13.57
2023-05-21T21:58:46.368Z,13.56
2023-05-21T22:01:14.355Z,13.60
2023-05-21T22:03:42.572Z,13.63
2023-05-21T22:06:10.727Z,13.63
2023-05-21T22:08:39.268Z,13.65
2023-05-21T22:11:07.954Z,13.64
2023-05-21T22:13:36.735Z,13.61
2023-05-21T22:16:05.736Z,13.59
2023-05-21T22:18:40.901Z,13.51
2023-05-21T22:21:11.029Z,13.37
2023-05-21T22:23:39.200Z,13.23
2023-05-21T22:26:09.790Z,13.09
2023-05-21T22:28:38.069Z,12.99
2023-05-21T22:31:06.469Z,12.94
2023-05-21T22:33:34.724Z,12.91
2023-05-21T22:36:02.989Z,12.85
2023-05-21T22:38:31.182Z,12.75
2023-05-21T22:40:59.230Z,12.69
2023-05-21T22:43:27.847Z,12.64
2023-05-21T22:45:56.183Z,12.63
2023-05-21T22:48:24.477Z,12.58
2023-05-21T22:50:53.778Z,12.51
2023-05-21T22:53:21.844Z,12.49
2023-05-21T22:55:50.533Z,12.49
2023-05-21T22:58:19.309Z,12.51
2023-05-21T23:00:48.313Z,12.53
2023-05-21T23:03:17.026Z,12.56
2023-05-21T23:05:45.675Z,12.59
2023-05-21T23:08:14.365Z,12.62
2023-05-21T23:10:42.776Z,12.67
2023-05-21T23:13:12.937Z,12.73
2023-05-21T23:15:44.069Z,12.78
2023-05-21T23:18:12.752Z,12.77
2023-05-21T23:20:41.789Z,12.74
2023-05-21T23:23:10.660Z,12.72
2023-05-21T23:25:38.900Z,12.79
2023-05-21T23:28:07.674Z,12.89
2023-05-21T23:30:35.932Z,12.97
2023-05-21T23:33:03.963Z,12.99
2023-05-21T23:35:32.662Z,12.94
2023-05-21T23:38:00.851Z,12.89
2023-05-21T23:40:29.022Z,12.88
2023-05-21T23:42:57.314Z,12.92
2023-05-21T23:45:25.440Z,12.94
2023-05-21T23:47:53.817Z,12.92
2023-05-21T23:50:22.311Z,12.88
2023-05-21T23:52:50.624Z,12.87
2023-05-21T23:55:18.742Z,12.85
2023-05-21T23:57:47.041Z,12.82
